Flight Track Log - Related Links

Times and Time Zones

All times are in EDT time to prevent confusion due to time zone crossing. See the SKW6492 flight status page for this flight to view local times or setup timezone preferences in your user account.

Time Position Orientation Groundspeed Altitude Reporting Facility
EDT Latitude Longitude Course Direction KTS MPH feet Rate Location/Type
Thu 04:30:40 PM 30.1564 -97.6800 291° West 163 188 2,200  Level Houston Center
Thu 04:31:42 PM 30.1414 -97.7339 252° West 219 252 4,100 2,274 Climbing Houston Center
Thu 04:32:44 PM 30.1839 -97.8133 302° West 244 281 6,900 2,661 Climbing Houston Center
Thu 04:33:00 PM 30.4526 -97.7697 293° West  Level FlightAware Approximate
Thu 04:33:46 PM 30.2297 -97.8861 306° West 260 299 9,600  Level Houston Center
Thu 04:34:00 PM 30.4980 -97.8946 293° West  Level FlightAware Approximate
Thu 04:34:49 PM 30.2756 -97.9594 306° West 279 321 11,200  Level Houston Center
Thu 04:35:00 PM 30.5404 -98.0210 291° West  Level FlightAware Approximate
Thu 04:35:51 PM 30.3272 -98.0397 307° West 310 357 13,400  Level Houston Center
Thu 04:36:00 PM 30.5826 -98.1475 291° West  Level FlightAware Approximate
Thu 04:36:53 PM 30.3806 -98.1242 306° West 319 367 15,600  Level Houston Center
Thu 04:37:55 PM 30.4361 -98.2094 307° West 325 374 18,100 1,984 Climbing Houston Center
Thu 04:38:57 PM 30.4894 -98.2947 306° West 324 373 19,700 1,548 Climbing Houston Center
Thu 04:39:59 PM 30.5450 -98.3856 305° West 336 387 21,300 1,742 Climbing Houston Center
Thu 04:41:01 PM 30.6128 -98.4931 306° West 347 399 23,300 1,728 Climbing Houston Center
Thu 04:42:04 PM 30.6686 -98.5881 304° West 352 405 24,900 1,440 Climbing Houston Center
Thu 04:43:06 PM 30.6911 -98.6989 283° West 350 403 26,300 1,113 Climbing Houston Center
Thu 04:44:08 PM 30.7156 -98.8136 284° West 361 415 27,200 968 Climbing Houston Center
Thu 04:45:10 PM 30.7408 -98.9322 284° West 374 430 28,300 919 Climbing Houston Center
Thu 04:46:12 PM 30.7664 -99.0528 284° West 381 438 29,100 1,016 Climbing Houston Center
Thu 04:47:14 PM 30.7978 -99.1922 285° West 387 445 30,400 1,452 Climbing Houston Center
Thu 04:48:16 PM 30.8231 -99.3103 284° West 380 437 32,100 1,355 Climbing Houston Center
Thu 04:49:18 PM 30.8481 -99.4236 284° West 368 423 33,200 1,296 Climbing Houston Center
Thu 04:50:21 PM 30.8689 -99.5303 283° West 344 396 34,800 1,104 Climbing Houston Center
Thu 04:51:23 PM 30.8911 -99.6375 284° West 353 406 35,500 1,065 Climbing Houston Center
Thu 04:52:25 PM 30.9208 -99.7672 285° West 347 399 37,000 968 Climbing Houston Center
Thu 04:53:27 PM 30.9406 -99.8678 283° West 330 380 37,500 484 Climbing Houston Center
Thu 04:54:29 PM 30.9614 -99.9706 283° West 327 376 38,000 242 Climbing Houston Center
Thu 04:55:31 PM 30.9828 -100.0733 284° West 327 376 38,000  Level Houston Center
Thu 04:56:33 PM 31.0050 -100.1808 284° West 337 388 38,000  Level Houston Center
Thu 04:57:35 PM 31.0264 -100.2906 283° West 345 397 38,000  Level Houston Center
Thu 04:59:40 PM 31.1564 -100.4997 306° West 388 447 38,000 -32 Level Houston Center
Thu 05:00:42 PM 31.2703 -100.5361 345° North 422 486 37,900  Descending Houston Center
Thu 05:01:50 PM 31.4178 -100.5731 348° North 405 466 38,000 47 Climbing Fort Worth Center
Thu 05:02:50 PM 31.5361 -100.5989 349° North 420 483 38,000  Level Fort Worth Center
Thu 05:03:50 PM 31.6544 -100.6300 347° North 431 496 38,000  Level Fort Worth Center
Thu 05:04:50 PM 31.7725 -100.6633 347° North 431 496 38,000 -50 Level Fort Worth Center
Thu 05:05:49 PM 31.8697 -100.6936 345° North 431 496 37,900  Descending Fort Worth Center
Thu 05:06:50 PM 32.0083 -100.7453 342° North 431 496 38,000 50 Climbing Fort Worth Center
Thu 05:07:50 PM 32.1283 -100.7864 344° North 436 502 38,000  Level Fort Worth Center
Thu 05:08:50 PM 32.2461 -100.8275 344° North 436 502 38,000  Level Fort Worth Center
Thu 05:09:50 PM 32.3683 -100.8692 344° North 436 502 38,000  Level Fort Worth Center
Thu 05:10:50 PM 32.4903 -100.9108 344° North 447 514 38,000  Level Fort Worth Center
Thu 05:11:50 PM 32.6100 -100.9547 343° North 452 520 38,000  Level Fort Worth Center
Thu 05:12:50 PM 32.7319 -100.9967 344° North 457 526 38,000  Level Fort Worth Center
Thu 05:13:50 PM 32.8519 -101.0386 344° North 457 526 38,000  Level Fort Worth Center
Thu 05:14:50 PM 32.9717 -101.0781 345° North 452 520 38,000  Level Fort Worth Center
Thu 05:15:50 PM 33.0792 -101.1147 344° North 452 520 38,000  Level Fort Worth Center
Thu 05:16:50 PM 33.2114 -101.1600 344° North 452 520 38,000  Level Fort Worth Center
Thu 05:17:50 PM 33.3147 -101.1992 342° North 440 506 38,000  Level Fort Worth Center
Thu 05:18:50 PM 33.4447 -101.2469 343° North 440 506 38,000  Level Fort Worth Center
Thu 05:19:50 PM 33.5478 -101.2839 343° North 435 501 38,000  Level Fort Worth Center
Thu 05:20:50 PM 33.6800 -101.3297 344° North 443 510 38,000  Level Fort Worth Center
Thu 05:21:50 PM 33.7872 -101.3694 343° North 443 510 38,000  Level Fort Worth Center
Thu 05:22:50 PM 33.9214 -101.4183 343° North 443 510 38,000  Level Fort Worth Center
Thu 05:23:50 PM 34.0244 -101.4556 343° North 436 502 38,000  Level Fort Worth Center
Thu 05:24:50 PM 34.1564 -101.5069 342° North 436 502 38,000  Level Fort Worth Center
Thu 05:25:50 PM 34.2636 -101.5422 345° North 443 510 38,000  Level Fort Worth Center
Thu 05:27:28 PM 34.4667 -101.6133 344° North 450 518 38,000  Level Albuquerque Center
Thu 05:28:30 PM 34.5872 -101.6586 343° North 451 519 38,000  Level Albuquerque Center
Thu 05:29:32 PM 34.7069 -101.7033 343° North 450 518 38,000  Level Albuquerque Center
Thu 05:30:34 PM 34.8258 -101.7481 343° North 447 514 38,000  Level Albuquerque Center
Thu 05:31:35 PM 34.9456 -101.7925 343° North 447 514 38,000  Level Albuquerque Center
Thu 05:32:37 PM 35.0864 -101.8428 344° North 455 524 38,000  Level Albuquerque Center
Thu 05:33:39 PM 35.2078 -101.8886 343° North 455 524 38,000  Level Albuquerque Center
Thu 05:34:41 PM 35.3297 -101.9342 343° North 454 522 38,000  Level Albuquerque Center
Thu 05:35:43 PM 35.4575 -101.9844 342° North 447 514 38,000  Level Albuquerque Center
Thu 05:36:45 PM 35.5778 -102.0286 343° North 448 516 38,000  Level Albuquerque Center
Thu 05:37:47 PM 35.6981 -102.0742 343° North 449 517 38,000  Level Albuquerque Center
Thu 05:38:49 PM 35.8192 -102.1194 343° North 453 521 38,000  Level Albuquerque Center
Thu 05:39:51 PM 35.9394 -102.1656 343° North 453 521 38,000  Level Albuquerque Center
Thu 05:40:53 PM 36.0594 -102.2119 343° North 451 519 38,000  Level Albuquerque Center
Thu 05:41:54 PM 36.2031 -102.2672 343° North 451 519 38,000  Level Albuquerque Center
Thu 05:42:56 PM 36.3233 -102.3139 343° North 452 520 38,000  Level Albuquerque Center
Thu 05:43:58 PM 36.4439 -102.3569 344° North 451 519 38,000  Level Albuquerque Center
Thu 05:45:00 PM 36.5642 -102.4056 342° North 453 521 38,000  Level Albuquerque Center
Thu 05:46:02 PM 36.6839 -102.4517 343° North 453 521 38,000  Level Albuquerque Center
Thu 05:47:04 PM 36.8031 -102.4975 343° North 449 517 38,000 -290 Level Albuquerque Center
Thu 05:48:06 PM 36.9436 -102.5533 342° North 457 526 37,400 -774 Descending Albuquerque Center
Thu 05:49:08 PM 37.0586 -102.5978 343° North 454 522 36,400 -677 Descending Albuquerque Center
Thu 05:50:10 PM 37.1906 -102.6503 342° North 448 516 36,000 -194 Descending Albuquerque Center
Thu 05:51:12 PM 37.3022 -102.6942 343° North 442 509 36,000  Level Albuquerque Center
Thu 05:51:45 PM 37.3775 -102.7242 342° North 443 510 36,000  Level Denver Center
Thu 05:52:47 PM 37.4925 -102.7686 343° North 449 517 36,000  Level Denver Center
Thu 05:53:49 PM 37.6306 -102.8153 345° North 457 526 36,000  Level Denver Center
Thu 05:54:51 PM 37.7503 -102.8519 346° North 461 531 36,000  Level Denver Center
Thu 05:55:53 PM 37.8947 -102.8731 353° North 469 540 36,000  Level Denver Center
Thu 05:57:07 PM 38.0169 -102.8928 353° North 465 535 36,000  Level Denver Center
Thu 05:58:09 PM 38.1672 -102.9158 353° North 456 525 36,000 -145 Level Denver Center
Thu 05:59:11 PM 38.3061 -102.9369 353° North 449 517 35,700 -484 Descending Denver Center
Thu 06:00:13 PM 38.4258 -102.9550 353° North 451 519 35,000 -919 Descending Denver Center
Thu 06:01:15 PM 38.5656 -102.9758 353° North 450 518 33,800 -1,200 Descending Denver Center
Thu 06:02:18 PM 38.6903 -102.9997 351° North 443 510 32,500 -1,296 Descending Denver Center
Thu 06:03:20 PM 38.7936 -103.0697 332° Northwest 440 506 31,100 -1,645 Descending Denver Center
Thu 06:04:22 PM 38.8828 -103.2039 311° West 441 507 29,100 -1,935 Descending Denver Center
Thu 06:05:24 PM 38.9603 -103.3150 312° West 439 505 27,100 -2,274 Descending Denver Center
Thu 06:06:26 PM 39.0492 -103.4397 313° West 424 488 24,400 -2,419 Descending Denver Center
Thu 06:07:28 PM 39.1225 -103.5392 314° West 404 465 22,100 -1,790 Descending Denver Center
Thu 06:08:30 PM 39.2111 -103.6289 322° Northwest 363 418 20,700 -1,113 Descending Denver Center
Thu 06:09:32 PM 39.2764 -103.6978 321° Northwest 324 373 19,800 -968 Descending Denver Center
Thu 06:10:34 PM 39.3497 -103.7797 319° Northwest 314 361 18,700 -968 Descending Denver Center
Thu 06:11:36 PM 39.4108 -103.8800 308° West 341 392 17,800 -919 Descending Denver Center
Thu 06:12:38 PM 39.4594 -103.9736 304° West 315 362 16,800 -1,258 Descending Denver Center
Thu 06:13:40 PM 39.5114 -104.0739 304° West 313 360 15,200 -1,355 Descending Denver Center
Thu 06:14:42 PM 39.4731 -104.1806 245° Southwest 333 383 14,000 -871 Descending Denver Center
Thu 06:15:44 PM 39.4358 -104.2758 243° Southwest 309 356 13,400 -484 Descending Denver Center
Thu 06:16:46 PM 39.4450 -104.3786 277° West 271 312 13,000 -629 Descending Denver Center
Thu 06:17:48 PM 39.4639 -104.4719 285° West 270 311 12,100 -968 Descending Denver Center
Thu 06:18:50 PM 39.4889 -104.5711 288° West 270 311 11,000 -1,016 Descending Denver Center
Thu 06:19:52 PM 39.5244 -104.6369 305° West 242 278 10,000 -484 Descending Denver Center
Thu 06:20:54 PM 39.5822 -104.6644 340° North 216 249 10,000 -387 Level Denver Center
Thu 06:21:56 PM 39.6397 -104.6625 North 209 241 9,200 -968 Descending Denver Center
Thu 06:22:58 PM 39.6950 -104.6622 360° North 198 228 8,000 -1,161 Descending Denver Center

Login

Don't have an account? Register now (free) for customized features, flight alerts, and more!